createdAt,value
2023-05-03T00:01:14.649Z,65.72
2023-05-03T00:06:38.839Z,65.74
2023-05-03T00:12:03.176Z,66.38
2023-05-03T00:17:27.344Z,66.76
2023-05-03T00:22:52.620Z,66.87
2023-05-03T00:28:17.201Z,67.08
2023-05-03T00:33:41.256Z,66.83
2023-05-03T00:39:05.913Z,67.03
2023-05-03T00:44:31.208Z,67.41
2023-05-03T00:49:56.569Z,67.63
2023-05-03T00:55:21.108Z,67.84
2023-05-03T01:00:45.727Z,68.23
2023-05-03T01:06:36.307Z,68.14
2023-05-03T01:12:12.491Z,68.44
2023-05-03T01:17:42.406Z,68.66
2023-05-03T01:23:15.039Z,68.67
2023-05-03T01:28:39.179Z,68.84
2023-05-03T01:34:29.139Z,68.89
2023-05-03T01:40:04.533Z,68.73
2023-05-03T01:45:30.193Z,68.44
2023-05-03T01:50:54.284Z,68.57
2023-05-03T01:56:18.290Z,68.76
2023-05-03T02:01:42.550Z,69.06
2023-05-03T02:07:07.356Z,69.16
2023-05-03T02:12:31.614Z,69.24
2023-05-03T02:17:56.394Z,69.40
2023-05-03T02:23:21.231Z,69.73
2023-05-03T02:28:45.347Z,69.80
2023-05-03T02:34:10.837Z,69.69
2023-05-03T02:39:37.024Z,69.68
2023-05-03T02:45:01.560Z,69.51
2023-05-03T02:50:26.884Z,69.52
2023-05-03T02:55:51.572Z,69.39
2023-05-03T03:01:16.251Z,69.04
2023-05-03T03:06:41.591Z,68.95
2023-05-03T03:12:06.510Z,68.63
2023-05-03T03:17:32.445Z,68.77
2023-05-03T03:22:58.787Z,68.91
2023-05-03T03:28:23.803Z,68.88
2023-05-03T03:33:49.678Z,68.99
2023-05-03T03:39:14.968Z,69.04
2023-05-03T03:44:40.855Z,69.30
2023-05-03T03:50:06.776Z,69.26
2023-05-03T03:55:31.576Z,69.54
2023-05-03T04:00:55.943Z,69.75
2023-05-03T04:06:21.260Z,69.97
2023-05-03T04:11:46.733Z,70.23
2023-05-03T04:17:11.231Z,70.29
2023-05-03T04:22:35.294Z,70.13
2023-05-03T04:28:00.367Z,70.26
2023-05-03T04:33:24.829Z,70.36
2023-05-03T04:38:50.338Z,70.33
2023-05-03T04:44:16.315Z,70.10
2023-05-03T04:49:41.604Z,69.87
2023-05-03T04:55:06.959Z,69.86
2023-05-03T05:00:31.990Z,69.55
2023-05-03T05:06:01.016Z,69.21
2023-05-03T05:11:26.291Z,68.64
2023-05-03T05:16:50.730Z,68.83
2023-05-03T05:22:15.155Z,68.25
2023-05-03T05:27:44.140Z,68.17
2023-05-03T05:33:08.267Z,67.56
2023-05-03T05:38:32.619Z,66.65
2023-05-03T05:43:59.176Z,66.21
2023-05-03T05:49:24.289Z,65.78
2023-05-03T05:54:49.374Z,65.36
2023-05-03T06:00:17.785Z,64.96
2023-05-03T06:05:42.770Z,64.81
2023-05-03T06:11:08.096Z,64.71
2023-05-03T06:16:32.451Z,64.38
2023-05-03T06:21:58.319Z,64.28
2023-05-03T06:27:25.649Z,64.09
2023-05-03T06:33:15.121Z,63.87
2023-05-03T06:38:42.981Z,63.11
2023-05-03T06:44:09.904Z,62.86
2023-05-03T06:49:34.251Z,62.55
2023-05-03T06:54:58.801Z,61.33
2023-05-03T07:00:23.637Z,60.40
2023-05-03T07:05:48.377Z,60.36
2023-05-03T07:11:13.048Z,60.01
2023-05-03T07:16:37.329Z,59.10
2023-05-03T07:22:03.682Z,58.25
2023-05-03T07:27:28.281Z,58.95
2023-05-03T07:32:53.062Z,58.26
2023-05-03T07:38:17.831Z,55.36
2023-05-03T07:50:44.096Z,55.62
2023-05-03T07:56:09.006Z,55.26
2023-05-03T08:01:33.488Z,54.92
2023-05-03T08:07:02.483Z,54.19
2023-05-03T08:12:27.198Z,51.78
2023-05-03T08:17:51.603Z,52.15
2023-05-03T08:23:19.314Z,51.43
2023-05-03T08:28:43.097Z,50.58
2023-05-03T08:34:10.714Z,49.47
2023-05-03T08:39:35.358Z,49.81
2023-05-03T08:44:59.557Z,48.79
2023-05-03T08:50:24.879Z,49.86
2023-05-03T08:55:48.601Z,48.47
2023-05-03T09:01:14.858Z,46.84
2023-05-03T09:06:40.370Z,47.53
2023-05-03T09:12:06.460Z,47.69
2023-05-03T09:17:30.421Z,45.56
2023-05-03T09:22:54.578Z,45.99
2023-05-03T09:28:20.425Z,46.56
2023-05-03T09:33:44.701Z,45.86
2023-05-03T09:39:17.837Z,46.16
2023-05-03T09:44:43.589Z,46.07
2023-05-03T09:50:08.405Z,46.40
2023-05-03T09:55:36.955Z,47.10
2023-05-03T10:01:01.119Z,46.90
2023-05-03T10:06:32.292Z,46.02
2023-05-03T10:12:00.787Z,45.26
2023-05-03T10:17:47.167Z,45.18
2023-05-03T10:23:14.137Z,45.03
2023-05-03T10:28:38.240Z,43.07
2023-05-03T10:34:20.114Z,42.73
2023-05-03T10:39:47.719Z,42.99
2023-05-03T10:45:25.760Z,43.84
2023-05-03T10:50:52.216Z,43.52
2023-05-03T10:56:16.322Z,44.30
2023-05-03T11:01:44.853Z,43.23
2023-05-03T11:07:10.585Z,41.10
2023-05-03T11:12:34.680Z,40.72
2023-05-03T11:17:59.583Z,41.03
2023-05-03T11:23:30.855Z,39.88
2023-05-03T11:28:55.292Z,40.78
2023-05-03T11:34:19.803Z,40.06
2023-05-03T11:39:43.566Z,40.24
2023-05-03T11:45:09.783Z,40.35
2023-05-03T11:50:48.233Z,40.90
2023-05-03T11:56:15.705Z,40.22
2023-05-03T12:01:39.913Z,39.10
2023-05-03T12:07:05.684Z,37.78
2023-05-03T12:12:32.525Z,38.67
2023-05-03T12:18:04.506Z,39.33
2023-05-03T12:23:29.423Z,39.23
2023-05-03T12:28:55.953Z,38.91
2023-05-03T12:34:33.682Z,38.47
2023-05-03T12:40:22.493Z,37.41
2023-05-03T12:45:46.931Z,38.07
2023-05-03T12:56:47.743Z,39.09
2023-05-03T13:07:43.367Z,38.25
2023-05-03T13:13:08.054Z,36.64
2023-05-03T13:18:32.688Z,36.86
2023-05-03T13:23:57.757Z,38.66
2023-05-03T13:29:22.901Z,38.46
2023-05-03T13:34:47.506Z,38.35
2023-05-03T13:40:12.585Z,35.84
2023-05-03T13:45:36.783Z,34.45
2023-05-03T13:51:00.991Z,36.39
2023-05-03T13:56:26.422Z,37.99
2023-05-03T14:01:51.792Z,36.90
2023-05-03T14:07:16.741Z,35.43
2023-05-03T14:12:40.613Z,35.96
2023-05-03T14:18:05.836Z,36.51
2023-05-03T14:23:30.766Z,35.74
2023-05-03T14:28:55.073Z,34.30
2023-05-03T14:34:20.099Z,35.00
2023-05-03T14:39:44.682Z,34.81
2023-05-03T14:45:11.820Z,35.06
2023-05-03T14:50:37.299Z,34.62
2023-05-03T14:56:02.193Z,34.58
2023-05-03T15:01:26.661Z,35.84
2023-05-03T15:06:51.072Z,35.59
2023-05-03T15:12:15.561Z,34.86
2023-05-03T15:17:39.801Z,35.39
2023-05-03T15:23:05.115Z,35.56
2023-05-03T15:28:29.486Z,36.05
2023-05-03T15:33:54.461Z,35.43
2023-05-03T15:39:19.000Z,35.16
2023-05-03T15:44:43.042Z,36.10
2023-05-03T15:50:08.194Z,37.20
2023-05-03T15:55:32.588Z,35.27
2023-05-03T16:00:57.462Z,35.26
2023-05-03T16:06:22.763Z,35.69
2023-05-03T16:11:48.120Z,34.96
2023-05-03T16:17:12.792Z,35.13
2023-05-03T16:22:39.725Z,35.20
2023-05-03T16:28:03.590Z,35.93
2023-05-03T16:33:27.977Z,35.63
2023-05-03T16:38:52.242Z,35.62
2023-05-03T16:44:18.868Z,34.89
2023-05-03T16:49:43.455Z,36.24
2023-05-03T16:55:09.387Z,35.12
2023-05-03T17:00:33.934Z,35.40
2023-05-03T17:05:57.809Z,35.95
2023-05-03T17:11:22.683Z,35.89
2023-05-03T17:16:49.212Z,35.79
2023-05-03T17:22:13.960Z,35.34
2023-05-03T17:27:37.820Z,36.11
2023-05-03T17:33:02.126Z,37.10
2023-05-03T17:38:25.906Z,37.13
2023-05-03T17:43:51.440Z,37.30
2023-05-03T17:49:16.600Z,36.58
2023-05-03T17:54:42.254Z,36.56
2023-05-03T18:00:07.183Z,38.05
2023-05-03T18:05:37.158Z,39.44
2023-05-03T18:11:01.853Z,40.19
2023-05-03T18:16:26.446Z,40.65
2023-05-03T18:21:51.763Z,41.28
2023-05-03T18:27:16.328Z,41.79
2023-05-03T18:32:40.375Z,42.23
2023-05-03T18:38:04.746Z,42.86
2023-05-03T18:43:29.051Z,43.45
2023-05-03T18:48:54.912Z,44.14
2023-05-03T18:54:21.484Z,44.92
2023-05-03T18:59:59.386Z,45.43
2023-05-03T19:05:24.531Z,45.95
2023-05-03T19:10:49.283Z,46.39
2023-05-03T19:16:15.932Z,47.24
2023-05-03T19:21:42.719Z,47.71
2023-05-03T19:27:07.051Z,48.26
2023-05-03T19:32:35.753Z,48.69
2023-05-03T19:37:59.397Z,48.82
2023-05-03T19:43:24.032Z,49.10
2023-05-03T19:48:48.427Z,49.74
2023-05-03T19:54:13.228Z,50.40
2023-05-03T19:59:38.229Z,51.09
2023-05-03T20:05:02.659Z,51.56
2023-05-03T20:10:27.670Z,51.81
2023-05-03T20:15:51.642Z,52.20
2023-05-03T20:21:15.782Z,52.81
2023-05-03T20:26:41.518Z,53.36
2023-05-03T20:32:08.395Z,53.59
2023-05-03T20:37:33.600Z,53.90
2023-05-03T20:42:57.980Z,54.03
2023-05-03T20:48:21.933Z,54.38
2023-05-03T20:53:46.009Z,54.83
2023-05-03T20:59:10.480Z,55.39
2023-05-03T21:04:35.314Z,55.66
2023-05-03T21:10:00.224Z,56.19
2023-05-03T21:15:24.031Z,56.70
2023-05-03T21:20:48.215Z,57.00
2023-05-03T21:26:12.417Z,57.32
2023-05-03T21:31:37.911Z,57.31
2023-05-03T21:37:02.300Z,57.09
2023-05-03T21:42:26.800Z,57.54
2023-05-03T21:47:51.384Z,57.80
2023-05-03T21:53:15.757Z,58.35
2023-05-03T21:58:40.306Z,58.32
2023-05-03T22:04:05.617Z,58.51
2023-05-03T22:09:30.908Z,58.74
2023-05-03T22:14:55.635Z,58.98
2023-05-03T22:20:19.803Z,59.31
2023-05-03T22:25:43.698Z,59.73
2023-05-03T22:31:07.709Z,59.70
2023-05-03T22:36:31.495Z,60.15
2023-05-03T22:41:56.030Z,60.35
2023-05-03T22:47:21.785Z,60.37
2023-05-03T22:52:46.060Z,60.89
2023-05-03T22:58:10.426Z,61.15
2023-05-03T23:03:34.353Z,61.28
2023-05-03T23:08:58.821Z,61.35
2023-05-03T23:14:23.902Z,61.72
2023-05-03T23:19:48.496Z,62.07
2023-05-03T23:25:12.478Z,62.18
2023-05-03T23:30:36.823Z,62.38
2023-05-03T23:36:01.511Z,62.55
2023-05-03T23:41:26.374Z,62.81
2023-05-03T23:46:50.491Z,63.05
2023-05-03T23:52:17.369Z,63.14
2023-05-03T23:57:41.296Z,63.05
